createdAt,value
2023-02-09T00:01:31.051Z,6.80
2023-02-09T00:04:00.503Z,5.78
2023-02-09T00:06:30.073Z,4.93
2023-02-09T00:08:58.951Z,5.43
2023-02-09T00:11:49.074Z,4.55
2023-02-09T00:14:21.527Z,5.38
2023-02-09T00:16:50.736Z,5.93
2023-02-09T00:19:21.228Z,6.00
2023-02-09T00:21:49.667Z,6.30
2023-02-09T00:24:18.087Z,5.38
2023-02-09T00:26:47.025Z,7.25
2023-02-09T00:29:15.409Z,4.82
2023-02-09T00:31:45.000Z,6.90
2023-02-09T00:34:13.269Z,4.85
2023-02-09T00:36:44.014Z,6.60
2023-02-09T00:39:13.106Z,5.25
2023-02-09T00:41:58.450Z,5.40
2023-02-09T00:44:27.434Z,6.38
2023-02-09T00:46:57.875Z,7.03
2023-02-09T00:49:26.146Z,6.30
2023-02-09T00:51:54.213Z,4.22
2023-02-09T00:54:23.110Z,5.57
2023-02-09T00:56:54.157Z,4.65
2023-02-09T00:59:22.731Z,5.25
2023-02-09T01:01:51.657Z,6.00
2023-02-09T01:04:22.641Z,5.90
2023-02-09T01:06:50.577Z,5.50
2023-02-09T01:09:18.732Z,5.38
2023-02-09T01:11:46.871Z,5.32
2023-02-09T01:14:15.778Z,5.47
2023-02-09T01:16:44.743Z,5.40
2023-02-09T01:19:14.710Z,5.93
2023-02-09T01:21:44.427Z,5.45
2023-02-09T01:24:15.604Z,5.07
2023-02-09T01:26:43.937Z,4.93
2023-02-09T01:29:17.228Z,5.20
2023-02-09T01:31:47.609Z,6.82
2023-02-09T01:34:18.311Z,5.05
2023-02-09T01:36:49.572Z,6.38
2023-02-09T01:39:18.033Z,5.40
2023-02-09T01:41:46.472Z,4.70
2023-02-09T01:44:51.770Z,5.20
2023-02-09T01:47:21.485Z,4.07
2023-02-09T01:49:51.842Z,5.90
2023-02-09T01:52:27.611Z,4.32
2023-02-09T01:55:01.369Z,4.53
2023-02-09T02:00:02.722Z,5.38
2023-02-09T02:02:32.762Z,3.83
2023-02-09T02:05:01.271Z,4.95
2023-02-09T02:07:40.071Z,5.13
2023-02-09T02:10:09.042Z,5.38
2023-02-09T02:12:38.380Z,5.15
2023-02-09T02:15:07.516Z,5.07
2023-02-09T02:17:53.171Z,6.20
2023-02-09T02:21:00.635Z,5.03
2023-02-09T02:23:36.675Z,5.15
2023-02-09T02:26:42.330Z,4.88
2023-02-09T02:29:45.184Z,4.18
2023-02-09T02:32:37.319Z,5.50
2023-02-09T02:35:16.232Z,5.07
2023-02-09T02:37:55.802Z,4.13
2023-02-09T02:40:34.329Z,4.45
2023-02-09T02:43:12.786Z,3.97
2023-02-09T02:45:46.344Z,4.57
2023-02-09T02:48:25.133Z,4.22
2023-02-09T02:51:01.068Z,4.47
2023-02-09T02:53:37.559Z,4.93
2023-02-09T02:56:11.368Z,5.13
2023-02-09T03:01:12.405Z,5.32
2023-02-09T03:03:45.124Z,5.43
2023-02-09T03:06:17.174Z,5.03
2023-02-09T03:08:54.465Z,4.55
2023-02-09T03:11:24.893Z,4.28
2023-02-09T03:14:06.728Z,4.32
2023-02-09T03:16:41.633Z,3.67
2023-02-09T03:19:25.401Z,4.55
2023-02-09T03:21:59.910Z,5.28
2023-02-09T03:24:38.225Z,4.95
2023-02-09T03:27:15.158Z,4.55
2023-02-09T03:29:47.418Z,5.97
2023-02-09T03:32:19.189Z,4.70
2023-02-09T03:34:49.067Z,5.63
2023-02-09T03:37:19.278Z,5.63
2023-02-09T03:39:47.635Z,5.68
2023-02-09T03:42:16.123Z,3.78
2023-02-09T03:44:44.701Z,4.93
2023-02-09T03:47:13.694Z,4.70
2023-02-09T03:49:45.876Z,5.80
2023-02-09T03:52:17.342Z,4.13
2023-02-09T03:54:46.209Z,5.18
2023-02-09T03:57:14.181Z,5.13
2023-02-09T03:59:43.891Z,4.57
2023-02-09T04:02:12.688Z,5.10
2023-02-09T04:04:41.187Z,6.18
2023-02-09T04:07:11.496Z,5.15
2023-02-09T04:09:50.377Z,6.50
2023-02-09T04:12:18.579Z,5.45
2023-02-09T04:14:46.576Z,6.13
2023-02-09T04:17:15.472Z,5.88
2023-02-09T04:19:43.761Z,5.18
2023-02-09T04:22:12.254Z,4.40
2023-02-09T04:24:40.349Z,5.70
2023-02-09T04:27:10.556Z,5.85
2023-02-09T04:29:38.826Z,5.13
2023-02-09T04:32:07.595Z,5.95
2023-02-09T04:34:35.824Z,4.93
2023-02-09T04:37:04.293Z,5.18
2023-02-09T04:39:32.465Z,5.57
2023-02-09T04:42:01.350Z,5.78
2023-02-09T04:44:31.132Z,5.45
2023-02-09T04:46:59.733Z,5.63
2023-02-09T04:49:27.735Z,5.85
2023-02-09T04:51:55.836Z,4.95
2023-02-09T04:54:24.066Z,7.13
2023-02-09T04:57:12.156Z,6.88
2023-02-09T04:59:41.933Z,4.95
2023-02-09T05:02:10.119Z,5.82
2023-02-09T05:04:38.427Z,5.20
2023-02-09T05:07:06.392Z,6.97
2023-02-09T05:09:34.626Z,5.00
2023-02-09T05:12:02.748Z,5.60
2023-02-09T05:14:30.764Z,5.20
2023-02-09T05:17:01.073Z,5.72
2023-02-09T05:19:29.357Z,6.53
2023-02-09T05:21:57.569Z,4.68
2023-02-09T05:24:26.008Z,6.00
2023-02-09T05:26:54.076Z,5.57
2023-02-09T05:29:22.379Z,5.22
2023-02-09T05:31:50.396Z,5.00
2023-02-09T05:34:20.770Z,6.07
2023-02-09T05:36:49.248Z,5.90
2023-02-09T05:39:18.264Z,5.38
2023-02-09T05:42:03.608Z,5.00
2023-02-09T05:44:32.128Z,5.68
2023-02-09T05:47:00.259Z,6.07
2023-02-09T05:49:29.998Z,5.05
2023-02-09T05:51:58.400Z,5.25
2023-02-09T05:54:27.557Z,5.65
2023-02-09T05:56:55.848Z,5.57
2023-02-09T05:59:24.531Z,5.90
2023-02-09T06:01:53.245Z,5.63
2023-02-09T06:04:24.055Z,6.32
2023-02-09T06:06:54.869Z,5.55
2023-02-09T06:09:24.101Z,4.95
2023-02-09T06:11:52.763Z,5.38
2023-02-09T06:14:21.912Z,5.57
2023-02-09T06:16:50.080Z,5.90
2023-02-09T06:19:22.036Z,4.05
2023-02-09T06:21:50.929Z,5.30
2023-02-09T06:24:23.464Z,4.78
2023-02-09T06:26:51.661Z,5.35
2023-02-09T06:29:19.869Z,4.57
2023-02-09T06:31:48.313Z,3.05
2023-02-09T06:34:16.471Z,4.85
2023-02-09T06:36:44.692Z,4.20
2023-02-09T06:39:13.168Z,4.22
2023-02-09T06:41:42.972Z,4.75
2023-02-09T06:44:12.169Z,4.68
2023-02-09T06:46:40.594Z,4.80
2023-02-09T06:49:08.794Z,4.22
2023-02-09T06:51:37.189Z,4.78
2023-02-09T06:54:06.027Z,4.57
2023-02-09T06:56:34.479Z,4.40
2023-02-09T06:59:04.362Z,4.78
2023-02-09T07:01:32.353Z,4.65
2023-02-09T07:04:00.525Z,4.93
2023-02-09T07:06:29.214Z,3.85
2023-02-09T07:08:57.408Z,6.75
2023-02-09T07:11:25.890Z,4.97
2023-02-09T07:13:54.018Z,6.88
2023-02-09T07:16:23.535Z,7.25
2023-02-09T07:18:54.579Z,5.55
2023-02-09T07:21:23.017Z,6.90
2023-02-09T07:23:52.752Z,6.25
2023-02-09T07:26:20.632Z,5.22
2023-02-09T07:28:49.587Z,6.78
2023-02-09T07:31:18.797Z,7.40
2023-02-09T07:33:48.410Z,5.10
2023-02-09T07:36:17.813Z,6.85
2023-02-09T07:38:46.130Z,5.07
2023-02-09T07:41:17.617Z,5.20
2023-02-09T07:43:46.316Z,4.95
2023-02-09T07:46:16.885Z,4.03
2023-02-09T07:48:45.109Z,4.45
2023-02-09T07:51:16.100Z,6.30
2023-02-09T07:53:44.151Z,3.53
2023-02-09T07:56:13.510Z,6.03
2023-02-09T07:58:41.609Z,4.55
2023-02-09T08:01:12.992Z,5.05
2023-02-09T08:03:43.565Z,4.10
2023-02-09T08:06:19.736Z,5.03
2023-02-09T08:08:49.025Z,4.50
2023-02-09T08:11:20.143Z,4.88
2023-02-09T08:13:49.223Z,4.70
2023-02-09T08:16:21.630Z,3.97
2023-02-09T08:18:55.144Z,4.05
2023-02-09T08:21:25.484Z,4.20
2023-02-09T08:23:59.286Z,4.50
2023-02-09T08:26:27.873Z,5.05
2023-02-09T08:28:57.722Z,3.63
2023-02-09T08:31:26.021Z,3.97
2023-02-09T08:33:54.908Z,4.75
2023-02-09T08:36:25.619Z,3.70
2023-02-09T08:38:53.983Z,4.43
2023-02-09T08:41:22.094Z,5.00
2023-02-09T08:43:51.800Z,5.22
2023-02-09T08:46:20.368Z,4.40
2023-02-09T08:48:48.614Z,5.43
2023-02-09T08:51:17.824Z,3.78
2023-02-09T08:53:52.676Z,3.67
2023-02-09T08:56:22.151Z,4.10
2023-02-09T08:58:51.156Z,3.25
2023-02-09T09:01:19.358Z,3.20
2023-02-09T09:03:47.725Z,4.28
2023-02-09T09:06:15.855Z,3.03
2023-02-09T09:08:44.052Z,3.28
2023-02-09T09:11:14.884Z,3.97
2023-02-09T09:13:45.424Z,3.95
2023-02-09T09:16:17.632Z,3.53
2023-02-09T09:18:46.364Z,4.07
2023-02-09T09:21:14.793Z,3.20
2023-02-09T09:23:42.967Z,3.88
2023-02-09T09:26:11.397Z,4.30
2023-02-09T09:28:40.733Z,4.57
2023-02-09T09:31:09.772Z,3.47
2023-02-09T09:33:38.539Z,4.03
2023-02-09T09:36:08.327Z,7.05
2023-02-09T09:38:37.815Z,4.47
2023-02-09T09:41:08.269Z,3.95
2023-02-09T09:43:38.889Z,4.50
2023-02-09T09:46:16.515Z,4.70
2023-02-09T09:48:47.221Z,4.05
2023-02-09T09:51:21.354Z,4.85
2023-02-09T09:53:52.670Z,3.95
2023-02-09T09:56:22.379Z,4.30
2023-02-09T09:58:52.026Z,5.28
2023-02-09T10:01:23.404Z,5.30
2023-02-09T10:03:51.522Z,4.60
2023-02-09T10:06:22.192Z,5.20
2023-02-09T10:08:56.186Z,5.22
2023-02-09T10:11:28.989Z,5.00
2023-02-09T10:13:59.015Z,4.65
2023-02-09T10:16:34.334Z,5.32
2023-02-09T10:19:04.617Z,4.60
2023-02-09T10:21:36.098Z,5.25
2023-02-09T10:24:12.495Z,4.63
2023-02-09T10:26:43.101Z,4.72
2023-02-09T10:29:25.164Z,5.70
2023-02-09T10:32:03.875Z,5.28
2023-02-09T10:34:42.205Z,5.80
2023-02-09T10:37:28.155Z,4.97
2023-02-09T10:40:16.217Z,5.72
2023-02-09T10:42:55.021Z,5.53
2023-02-09T10:45:28.190Z,5.63
2023-02-09T10:48:03.118Z,5.28
2023-02-09T10:50:31.306Z,6.00
2023-02-09T10:53:02.042Z,5.97
2023-02-09T10:55:36.092Z,6.63
2023-02-09T10:58:25.975Z,5.78
2023-02-09T11:01:01.658Z,7.25
2023-02-09T11:03:31.751Z,6.80
2023-02-09T11:06:03.172Z,6.95
2023-02-09T11:08:41.667Z,8.20
2023-02-09T11:11:20.804Z,7.53
2023-02-09T11:13:51.840Z,7.57
2023-02-09T11:16:34.907Z,10.05
2023-02-09T11:19:14.254Z,7.45
2023-02-09T11:21:56.648Z,9.07
2023-02-09T11:24:38.757Z,9.15
2023-02-09T11:27:19.658Z,8.23
2023-02-09T11:29:54.328Z,8.55
2023-02-09T11:32:28.361Z,7.50
2023-02-09T11:35:10.347Z,8.93
2023-02-09T11:37:51.952Z,7.53
2023-02-09T11:40:27.759Z,8.00
2023-02-09T11:43:19.044Z,7.93
2023-02-09T11:45:49.317Z,7.43
2023-02-09T11:48:26.079Z,7.72
2023-02-09T11:51:03.078Z,8.98
2023-02-09T11:53:40.988Z,9.55
2023-02-09T11:56:12.248Z,7.25
2023-02-09T11:58:50.946Z,6.97
2023-02-09T12:01:30.452Z,8.20
2023-02-09T12:04:15.797Z,7.70
2023-02-09T12:06:49.668Z,7.95
2023-02-09T12:12:09.322Z,7.63
2023-02-09T12:14:49.021Z,9.10
2023-02-09T12:17:22.665Z,7.63
2023-02-09T12:19:57.297Z,7.93
2023-02-09T12:22:51.867Z,8.00
2023-02-09T12:28:42.996Z,7.30
2023-02-09T12:31:14.643Z,7.60
2023-02-09T12:34:14.449Z,6.15
2023-02-09T12:37:20.300Z,9.07
2023-02-09T12:40:21.786Z,9.27
2023-02-09T12:43:27.949Z,8.10
2023-02-09T12:46:23.008Z,8.23
2023-02-09T12:49:07.799Z,8.73
2023-02-09T12:51:46.546Z,7.25
2023-02-09T12:54:37.861Z,7.80
2023-02-09T13:00:53.338Z,8.32
2023-02-09T13:03:26.080Z,8.90
2023-02-09T13:05:59.812Z,8.32
2023-02-09T13:08:46.619Z,8.40
2023-02-09T13:11:31.167Z,7.60
2023-02-09T13:14:03.397Z,7.95
2023-02-09T13:17:16.620Z,7.60
2023-02-09T13:20:09.019Z,8.15
2023-02-09T13:22:52.090Z,8.32
2023-02-09T13:25:27.854Z,8.98
2023-02-09T13:27:56.422Z,8.63
2023-02-09T13:30:30.139Z,8.50
2023-02-09T13:33:08.410Z,8.38
2023-02-09T13:35:44.052Z,9.13
2023-02-09T13:38:17.890Z,9.30
2023-02-09T13:40:48.661Z,9.40
2023-02-09T13:43:20.396Z,8.40
2023-02-09T13:45:49.922Z,8.88
2023-02-09T13:48:25.228Z,8.95
2023-02-09T13:50:55.375Z,8.50
2023-02-09T13:53:25.132Z,9.15
2023-02-09T13:55:55.985Z,9.82
2023-02-09T13:58:28.641Z,8.32
2023-02-09T14:01:00.503Z,8.80
2023-02-09T14:03:33.674Z,9.48
2023-02-09T14:06:09.088Z,9.70
2023-02-09T14:08:42.233Z,9.77
2023-02-09T14:11:33.349Z,10.77
2023-02-09T14:14:14.641Z,9.27
2023-02-09T14:16:53.394Z,10.35
2023-02-09T14:19:28.179Z,9.40
2023-02-09T14:21:56.720Z,9.40
2023-02-09T14:24:25.524Z,9.70
2023-02-09T14:26:56.607Z,8.38
2023-02-09T14:29:28.325Z,9.60
2023-02-09T14:31:57.883Z,10.60
2023-02-09T14:34:37.045Z,9.20
2023-02-09T14:37:32.865Z,10.20
2023-02-09T14:40:14.566Z,10.38
2023-02-09T14:43:05.574Z,10.95
2023-02-09T14:45:39.323Z,9.02
2023-02-09T14:48:18.792Z,8.88
2023-02-09T14:50:49.723Z,9.90
2023-02-09T14:53:19.202Z,8.65
2023-02-09T14:55:48.070Z,10.70
2023-02-09T14:58:24.194Z,10.02
2023-02-09T15:00:55.562Z,8.80
2023-02-09T15:03:24.346Z,9.65
2023-02-09T15:05:58.949Z,9.02
2023-02-09T15:08:30.473Z,10.02
2023-02-09T15:11:01.426Z,9.48
2023-02-09T15:13:32.642Z,9.00
2023-02-09T15:16:01.347Z,10.45
2023-02-09T15:18:29.595Z,10.02
2023-02-09T15:20:59.768Z,10.07
2023-02-09T15:23:28.165Z,10.70
2023-02-09T15:25:56.114Z,10.18
2023-02-09T15:28:28.714Z,11.00
2023-02-09T15:30:57.807Z,9.68
2023-02-09T15:33:27.030Z,10.73
2023-02-09T15:35:58.891Z,11.20
2023-02-09T15:38:29.493Z,11.18
2023-02-09T15:41:15.453Z,9.90
2023-02-09T15:44:01.867Z,9.43
2023-02-09T15:46:47.489Z,9.50
2023-02-09T15:49:15.889Z,9.77
2023-02-09T15:51:44.169Z,11.65
2023-02-09T15:54:19.579Z,10.98
2023-02-09T15:56:49.640Z,12.27
2023-02-09T15:59:21.417Z,11.60
2023-02-09T16:01:49.984Z,11.73
2023-02-09T16:04:18.693Z,10.15
2023-02-09T16:06:51.522Z,11.52
2023-02-09T16:09:24.258Z,12.18
2023-02-09T16:11:52.423Z,11.32
2023-02-09T16:14:23.546Z,10.07
2023-02-09T16:16:52.434Z,11.13
2023-02-09T16:19:22.056Z,11.85
2023-02-09T16:21:53.090Z,10.88
2023-02-09T16:24:30.615Z,9.93
2023-02-09T16:27:00.300Z,10.98
2023-02-09T16:29:29.735Z,11.02
2023-02-09T16:31:59.105Z,11.68
2023-02-09T16:34:27.273Z,11.15
2023-02-09T16:36:55.626Z,11.45
2023-02-09T16:39:25.969Z,11.60
2023-02-09T16:41:54.387Z,11.57
2023-02-09T16:44:24.553Z,11.23
2023-02-09T16:46:55.517Z,11.18
2023-02-09T16:49:35.403Z,11.10
2023-02-09T16:52:07.565Z,11.35
2023-02-09T16:54:42.890Z,10.63
2023-02-09T16:57:15.121Z,10.35
2023-02-09T16:59:43.813Z,11.70
2023-02-09T17:02:36.214Z,9.68
2023-02-09T17:05:16.341Z,12.40
2023-02-09T17:07:53.997Z,13.80
2023-02-09T17:10:27.177Z,11.88
2023-02-09T17:12:55.331Z,13.63
2023-02-09T17:15:31.543Z,11.88
2023-02-09T17:18:04.972Z,11.70
2023-02-09T17:20:38.992Z,11.35
2023-02-09T17:23:07.620Z,13.63
2023-02-09T17:25:38.321Z,13.30
2023-02-09T17:28:06.854Z,12.18
2023-02-09T17:30:35.901Z,14.48
2023-02-09T17:33:06.593Z,13.18
2023-02-09T17:36:22.530Z,15.13
2023-02-09T17:38:30.465Z,14.07
2023-02-09T17:41:02.512Z,12.55
2023-02-09T17:43:40.655Z,11.52
2023-02-09T17:46:10.496Z,14.05
2023-02-09T17:48:39.933Z,12.82
2023-02-09T17:51:10.798Z,13.98
2023-02-09T17:53:41.225Z,15.38
2023-02-09T17:56:12.029Z,14.77
2023-02-09T17:58:44.656Z,13.88
2023-02-09T18:01:26.542Z,10.75
2023-02-09T18:03:55.308Z,11.30
2023-02-09T18:06:30.035Z,12.27
2023-02-09T18:08:58.617Z,11.90
2023-02-09T18:11:42.078Z,13.60
2023-02-09T18:14:13.311Z,13.35
2023-02-09T18:16:43.206Z,14.13
2023-02-09T18:19:12.239Z,14.63
2023-02-09T18:21:47.800Z,15.77
2023-02-09T18:24:16.327Z,12.75
2023-02-09T18:26:48.031Z,14.70
2023-02-09T18:29:16.700Z,13.27
2023-02-09T18:31:46.721Z,13.18
2023-02-09T18:34:18.309Z,14.73
2023-02-09T18:36:47.004Z,17.13
2023-02-09T18:39:16.419Z,14.32
2023-02-09T18:41:48.486Z,14.07
2023-02-09T18:44:16.651Z,12.95
2023-02-09T18:46:44.916Z,14.45
2023-02-09T18:49:14.291Z,14.25
2023-02-09T18:51:43.133Z,13.43
2023-02-09T18:54:11.372Z,14.13
2023-02-09T18:56:40.306Z,16.35
2023-02-09T18:59:10.268Z,17.50
2023-02-09T19:01:42.196Z,17.63
2023-02-09T19:04:10.896Z,14.95
2023-02-09T19:06:40.697Z,15.30
2023-02-09T19:09:09.201Z,14.02
2023-02-09T19:11:37.641Z,16.13
2023-02-09T19:14:23.457Z,15.65
2023-02-09T19:16:53.468Z,16.30
2023-02-09T19:19:22.715Z,14.65
2023-02-09T19:21:52.296Z,14.45
2023-02-09T19:24:20.804Z,15.15
2023-02-09T19:26:49.038Z,14.63
2023-02-09T19:29:18.518Z,15.43
2023-02-09T19:31:48.679Z,15.57
2023-02-09T19:34:18.264Z,15.70
2023-02-09T19:36:48.426Z,14.60
2023-02-09T19:39:18.197Z,16.30
2023-02-09T19:41:47.308Z,17.23
2023-02-09T19:44:24.167Z,18.30
2023-02-09T19:46:52.564Z,19.88
2023-02-09T19:49:24.261Z,21.52
2023-02-09T19:51:52.323Z,18.30
2023-02-09T19:54:20.379Z,17.77
2023-02-09T19:56:48.658Z,16.58
2023-02-09T19:59:23.781Z,17.60
2023-02-09T20:01:52.058Z,17.02
2023-02-09T20:04:23.803Z,20.05
2023-02-09T20:06:52.604Z,17.02
2023-02-09T20:09:21.314Z,16.40
2023-02-09T20:14:17.763Z,18.08
2023-02-09T20:16:46.056Z,17.75
2023-02-09T20:19:14.509Z,18.60
2023-02-09T20:21:44.320Z,18.27
2023-02-09T20:24:13.430Z,20.90
2023-02-09T20:26:42.062Z,18.65
2023-02-09T20:29:11.280Z,15.38
2023-02-09T20:31:42.399Z,16.38
2023-02-09T20:34:15.053Z,16.30
2023-02-09T20:36:48.722Z,16.08
2023-02-09T20:39:19.053Z,19.33
2023-02-09T20:42:04.460Z,19.60
2023-02-09T20:44:50.407Z,18.95
2023-02-09T20:47:19.896Z,15.43
2023-02-09T20:49:47.998Z,17.60
2023-02-09T20:52:17.901Z,17.17
2023-02-09T20:54:46.073Z,16.50
2023-02-09T20:57:14.367Z,18.25
2023-02-09T20:59:42.321Z,18.20
2023-02-09T21:02:11.790Z,17.87
2023-02-09T21:04:39.988Z,18.65
2023-02-09T21:07:08.009Z,22.63
2023-02-09T21:09:39.190Z,19.20
2023-02-09T21:12:07.473Z,21.75
2023-02-09T21:14:42.212Z,21.48
2023-02-09T21:17:11.237Z,20.20
2023-02-09T21:19:39.407Z,20.08
2023-02-09T21:22:07.823Z,18.40
2023-02-09T21:24:38.020Z,21.77
2023-02-09T21:27:06.777Z,24.05
2023-02-09T21:29:35.551Z,18.45
2023-02-09T21:32:05.202Z,18.20
2023-02-09T21:34:33.983Z,19.98
2023-02-09T21:37:02.144Z,19.17
2023-02-09T21:39:32.062Z,17.42
2023-02-09T21:42:19.048Z,17.08
2023-02-09T21:44:47.466Z,16.92
2023-02-09T21:47:15.604Z,18.08
2023-02-09T21:49:43.550Z,16.65
2023-02-09T21:52:11.673Z,17.00
2023-02-09T21:54:40.576Z,18.45
2023-02-09T21:57:10.313Z,18.30
2023-02-09T21:59:38.783Z,18.92
2023-02-09T22:02:06.815Z,15.65
2023-02-09T22:04:35.049Z,17.08
2023-02-09T22:07:03.093Z,17.55
2023-02-09T22:09:31.945Z,15.02
2023-02-09T22:11:59.987Z,16.35
2023-02-09T22:14:30.048Z,16.63
2023-02-09T22:16:58.612Z,17.52
2023-02-09T22:19:27.067Z,15.77
2023-02-09T22:21:57.691Z,15.77
2023-02-09T22:24:26.268Z,14.57
2023-02-09T22:26:54.500Z,15.95
2023-02-09T22:29:22.841Z,15.98
2023-02-09T22:31:52.215Z,17.52
2023-02-09T22:34:20.389Z,17.15
2023-02-09T22:36:51.938Z,16.73
2023-02-09T22:39:19.818Z,14.77
2023-02-09T22:41:48.535Z,15.88
2023-02-09T22:44:17.724Z,13.68
2023-02-09T22:46:47.468Z,13.25
2023-02-09T22:49:19.112Z,15.73
2023-02-09T22:51:49.695Z,13.90
2023-02-09T22:54:21.236Z,14.73
2023-02-09T22:56:49.632Z,15.10
2023-02-09T22:59:20.076Z,13.48
2023-02-09T23:01:49.246Z,13.85
2023-02-09T23:04:18.769Z,12.50
2023-02-09T23:06:47.037Z,12.82
2023-02-09T23:09:16.361Z,13.63
2023-02-09T23:11:45.379Z,13.82
2023-02-09T23:14:14.138Z,13.82
2023-02-09T23:16:43.674Z,12.32
2023-02-09T23:19:15.618Z,13.77
2023-02-09T23:21:46.659Z,13.38
2023-02-09T23:24:15.831Z,14.25
2023-02-09T23:26:44.213Z,12.95
2023-02-09T23:29:15.297Z,14.27
2023-02-09T23:31:44.561Z,13.70
2023-02-09T23:34:15.458Z,13.98
2023-02-09T23:36:45.735Z,14.00
2023-02-09T23:39:16.933Z,14.32
2023-02-09T23:41:45.265Z,12.18
2023-02-09T23:44:13.771Z,15.50
2023-02-09T23:46:44.769Z,14.30
2023-02-09T23:49:12.951Z,14.63
2023-02-09T23:51:40.944Z,15.48
2023-02-09T23:54:11.972Z,15.82
2023-02-09T23:56:42.543Z,14.35
2023-02-09T23:59:14.607Z,14.27
